Time;durP1;ratioP1;P1;durP2;ratioP2;P2;SDS_P1;SDS_P2;PMS_P1;PMS_P2;Temp;Humidity;BMP_temperature;BMP_pressure;BME280_temperature;BME280_humidity;BME280_pressure;Samples;Min_cycle;Max_cycle;Signal;HPM_P1;HPM_P2
2022/11/04 00:01:20;;;;;;;14.60;9.55;;;11.30;99.90;;;;;;5014191;28;20030;-56
2022/11/04 00:04:06;;;;;;;14.20;9.60;;;11.40;99.90;;;;;;5028501;28;20030;-59
2022/11/04 00:06:53;;;;;;;12.60;9.15;;;11.40;99.90;;;;;;5029314;28;20100;-54
2022/11/04 00:09:39;;;;;;;14.82;9.05;;;11.40;99.90;;;;;;5015103;28;20025;-55
2022/11/04 00:12:25;;;;;;;13.48;9.85;;;11.40;99.90;;;;;;5028603;28;20030;-57
2022/11/04 00:18:15;;;;;;;12.77;9.93;;;11.40;99.90;;;;;;5029464;28;20501;-53
2022/11/04 00:30:19;;;;;;;13.90;10.35;;;11.40;99.90;;;;;;5029031;28;20033;-57
2022/11/04 00:36:09;;;;;;;15.63;10.25;;;11.30;99.90;;;;;;5032019;28;20061;-54
2022/11/04 00:38:55;;;;;;;15.68;10.93;;;11.20;99.90;;;;;;5033145;28;20056;-56
2022/11/04 00:41:41;;;;;;;13.88;10.45;;;11.20;99.90;;;;;;5032265;28;20131;-50
2022/11/04 00:44:27;;;;;;;11.93;9.48;;;11.20;99.90;;;;;;5018376;28;20026;-51
2022/11/04 00:47:13;;;;;;;14.50;9.52;;;11.20;99.90;;;;;;5017480;28;20108;-51
2022/11/04 00:49:59;;;;;;;14.00;10.07;;;11.30;99.90;;;;;;5032248;28;20022;-57
2022/11/04 00:52:44;;;;;;;12.80;10.18;;;11.30;99.90;;;;;;5014537;28;20030;-56
2022/11/04 00:55:30;;;;;;;15.60;10.65;;;11.30;99.90;;;;;;5023514;28;20033;-53
2022/11/04 00:58:16;;;;;;;15.38;10.15;;;11.30;99.90;;;;;;5032054;28;20060;-53
2022/11/04 01:01:11;;;;;;;17.35;10.30;;;11.30;99.90;;;;;;5031893;28;20038;-55
2022/11/04 01:03:57;;;;;;;13.88;10.00;;;11.20;99.90;;;;;;5033021;28;20038;-54
2022/11/04 01:06:42;;;;;;;16.23;9.90;;;11.10;99.90;;;;;;5032383;28;20367;-57
2022/11/04 01:09:28;;;;;;;14.10;10.38;;;11.20;99.90;;;;;;5031327;28;20028;-54
2022/11/04 01:12:15;;;;;;;16.30;10.63;;;11.10;99.90;;;;;;5031828;28;20030;-60
2022/11/04 01:15:01;;;;;;;15.43;10.57;;;11.10;99.90;;;;;;5031289;28;20037;-51
2022/11/04 01:17:47;;;;;;;20.92;11.02;;;11.10;99.90;;;;;;5031195;28;20025;-55
2022/11/04 01:20:33;;;;;;;15.52;9.88;;;11.20;99.90;;;;;;4998300;28;20055;-50
2022/11/04 01:23:20;;;;;;;11.80;9.35;;;11.20;99.90;;;;;;4998238;28;20046;-58
2022/11/04 01:26:07;;;;;;;13.43;9.68;;;11.20;99.90;;;;;;5012576;28;20033;-52
2022/11/04 01:28:55;;;;;;;13.82;8.77;;;11.30;99.90;;;;;;5017031;28;20060;-54
2022/11/04 01:31:41;;;;;;;11.98;9.05;;;11.40;99.90;;;;;;5032254;28;20664;-56
2022/11/04 01:34:27;;;;;;;13.27;9.40;;;11.50;99.90;;;;;;5012769;28;20656;-55
2022/11/04 01:37:13;;;;;;;14.98;9.70;;;11.50;99.90;;;;;;4999629;28;20057;-53
2022/11/04 01:39:59;;;;;;;17.65;11.73;;;11.60;99.90;;;;;;5017498;28;20034;-61
2022/11/04 01:42:44;;;;;;;12.52;9.70;;;11.50;99.90;;;;;;5031911;28;20033;-56
2022/11/04 01:45:31;;;;;;;13.95;10.75;;;11.60;99.90;;;;;;5031809;28;20091;-47
2022/11/04 01:48:24;;;;;;;15.18;9.75;;;11.60;99.90;;;;;;5031112;28;20181;-55
2022/11/04 01:51:10;;;;;;;13.82;9.68;;;11.60;99.90;;;;;;5030829;28;20026;-60
2022/11/04 01:53:56;;;;;;;12.23;9.90;;;11.60;99.90;;;;;;5031385;28;20038;-55
2022/11/04 01:56:45;;;;;;;12.82;9.57;;;11.70;99.90;;;;;;5030759;28;20072;-54
2022/11/04 01:59:35;;;;;;;12.73;8.80;;;11.70;99.90;;;;;;5030572;28;20476;-54
2022/11/04 02:02:21;;;;;;;12.82;9.90;;;11.80;99.90;;;;;;5029764;28;20444;-49
2022/11/04 02:05:08;;;;;;;13.98;10.07;;;11.80;99.90;;;;;;5030843;28;20100;-52
2022/11/04 02:07:56;;;;;;;18.15;9.80;;;11.80;99.90;;;;;;5030244;28;20429;-57
2022/11/04 02:10:51;;;;;;;14.52;11.35;;;11.80;99.90;;;;;;5031062;28;20025;-60
2022/11/04 02:13:37;;;;;;;11.93;9.00;;;11.80;99.90;;;;;;5031083;28;20108;-57
2022/11/04 02:16:37;;;;;;;11.50;9.00;;;11.80;99.90;;;;;;5030125;28;20037;-57
2022/11/04 02:19:59;;;;;;;12.45;9.27;;;11.80;99.90;;;;;;5030756;28;20029;-55
2022/11/04 02:23:16;;;;;;;11.90;9.35;;;11.90;99.90;;;;;;5030428;28;20034;-53
2022/11/04 02:26:39;;;;;;;13.77;10.05;;;11.80;99.90;;;;;;5030843;28;20041;-54
2022/11/04 02:29:44;;;;;;;12.55;10.15;;;11.70;99.90;;;;;;5030596;28;20100;-57
2022/11/04 02:32:50;;;;;;;13.10;9.15;;;11.60;99.90;;;;;;5030859;28;20119;-55
2022/11/04 02:35:54;;;;;;;13.18;9.75;;;11.60;99.90;;;;;;5029958;28;20238;-54
2022/11/04 02:39:15;;;;;;;12.07;9.35;;;11.60;99.90;;;;;;5029973;28;20026;-56
2022/11/04 02:42:11;;;;;;;11.68;9.73;;;11.60;99.90;;;;;;5015879;28;20029;-53
2022/11/04 02:45:12;;;;;;;13.52;9.88;;;11.70;99.90;;;;;;5030216;28;20120;-56
2022/11/04 02:48:16;;;;;;;13.93;10.18;;;11.60;99.90;;;;;;5029348;28;20077;-58
2022/11/04 02:51:20;;;;;;;13.05;9.88;;;11.60;99.90;;;;;;5010120;28;20110;-56
2022/11/04 02:54:32;;;;;;;14.13;9.53;;;11.50;99.90;;;;;;5016879;28;20385;-59
2022/11/04 02:57:22;;;;;;;13.60;9.32;;;11.50;99.90;;;;;;5010848;28;20045;-57
2022/11/04 03:00:12;;;;;;;14.32;9.43;;;11.50;99.90;;;;;;5029811;28;20032;-60
2022/11/04 03:03:08;;;;;;;14.63;10.25;;;11.50;99.90;;;;;;5029277;28;20462;-60
2022/11/04 03:05:57;;;;;;;12.77;10.23;;;11.60;99.90;;;;;;5030845;28;20037;-61
2022/11/04 03:08:47;;;;;;;14.00;9.45;;;11.60;99.90;;;;;;5016738;28;20397;-60
2022/11/04 03:11:35;;;;;;;12.07;9.48;;;11.60;99.90;;;;;;5030241;28;20029;-60
2022/11/04 03:14:30;;;;;;;12.27;8.98;;;11.70;99.90;;;;;;5015379;28;20030;-59
2022/11/04 03:17:40;;;;;;;14.43;9.30;;;11.70;99.90;;;;;;5016642;28;20172;-60
2022/11/04 03:20:30;;;;;;;13.93;9.27;;;11.70;99.90;;;;;;5010635;28;20030;-60
2022/11/04 03:23:16;;;;;;;12.18;9.07;;;11.70;99.90;;;;;;5015237;28;20618;-60
2022/11/04 03:26:27;;;;;;;18.95;9.63;;;11.60;99.90;;;;;;5029766;28;20095;-59
2022/11/04 03:29:40;;;;;;;11.18;8.98;;;11.60;99.90;;;;;;5010387;28;20037;-58
2022/11/04 03:32:43;;;;;;;12.40;8.85;;;11.60;99.90;;;;;;5025863;28;20116;-60
2022/11/04 03:35:29;;;;;;;13.00;8.93;;;11.50;99.90;;;;;;5016094;28;20549;-60
2022/11/04 03:38:15;;;;;;;13.98;9.25;;;11.50;99.90;;;;;;5028581;28;20029;-59
2022/11/04 03:41:06;;;;;;;11.70;8.88;;;11.60;99.90;;;;;;5028210;28;20124;-57
2022/11/04 03:43:52;;;;;;;14.20;9.90;;;11.70;99.90;;;;;;5029347;28;20021;-58
2022/11/04 03:46:39;;;;;;;10.80;8.43;;;11.70;99.90;;;;;;5029057;28;20494;-57
2022/11/04 03:49:26;;;;;;;13.52;8.98;;;11.70;99.90;;;;;;5029290;28;20045;-60
2022/11/04 03:52:13;;;;;;;13.38;10.05;;;11.70;99.90;;;;;;5029288;28;20036;-57
2022/11/04 03:54:59;;;;;;;12.93;9.80;;;11.60;99.90;;;;;;5029028;28;20056;-55
2022/11/04 03:58:03;;;;;;;22.42;10.50;;;11.60;99.90;;;;;;5014501;28;20494;-58
2022/11/04 04:00:57;;;;;;;13.13;9.20;;;11.70;99.90;;;;;;5014650;28;20034;-58
2022/11/04 04:03:59;;;;;;;12.52;8.80;;;11.60;99.90;;;;;;5016133;28;20022;-59
2022/11/04 04:06:47;;;;;;;12.85;8.77;;;11.70;99.90;;;;;;5008544;28;20030;-57
2022/11/04 04:09:43;;;;;;;11.80;8.93;;;11.70;99.90;;;;;;5014979;28;20032;-57
2022/11/04 04:12:36;;;;;;;9.93;8.75;;;11.70;99.90;;;;;;5032408;28;20120;-57
2022/11/04 04:15:28;;;;;;;12.05;9.02;;;11.70;99.90;;;;;;5033328;28;20112;-56
2022/11/04 04:18:18;;;;;;;12.45;8.75;;;11.70;99.90;;;;;;5031612;28;20021;-59
2022/11/04 04:21:08;;;;;;;11.27;8.88;;;11.80;99.90;;;;;;5032741;28;20033;-60
2022/11/04 04:30:12;;;;;;;17.42;9.68;;;11.80;99.90;;;;;;5032797;28;20034;-59
2022/11/04 04:33:08;;;;;;;10.45;8.63;;;11.70;99.90;;;;;;5032463;28;20029;-58
2022/11/04 04:35:56;;;;;;;11.55;9.10;;;11.70;99.90;;;;;;5032704;28;20057;-59
2022/11/04 04:45:02;;;;;;;10.17;9.00;;;11.80;99.90;;;;;;5032689;28;20490;-59
2022/11/04 04:47:48;;;;;;;10.95;8.80;;;11.80;99.90;;;;;;5031401;28;20033;-59
2022/11/04 04:50:38;;;;;;;11.60;8.43;;;11.80;99.90;;;;;;5032774;28;20537;-59
2022/11/04 04:53:24;;;;;;;12.00;9.48;;;11.70;99.90;;;;;;5013402;28;20041;-60
2022/11/04 04:56:10;;;;;;;15.02;10.48;;;11.70;99.90;;;;;;5016229;28;20160;-60
2022/11/04 04:58:56;;;;;;;12.98;9.52;;;11.60;99.90;;;;;;5032545;28;20041;-56
2022/11/04 05:01:42;;;;;;;11.77;9.02;;;11.70;99.90;;;;;;5031814;28;20048;-59
2022/11/04 05:04:27;;;;;;;12.07;8.98;;;11.70;99.90;;;;;;5031986;28;20448;-59
2022/11/04 05:07:13;;;;;;;13.55;9.45;;;11.70;99.90;;;;;;5012545;28;20037;-58
2022/11/04 05:09:59;;;;;;;18.83;14.38;;;11.70;99.90;;;;;;5025648;28;20068;-59
2022/11/04 05:15:50;;;;;;;13.80;9.75;;;11.70;99.90;;;;;;5032431;28;20033;-56
2022/11/04 05:18:36;;;;;;;13.38;8.55;;;11.80;99.90;;;;;;5031247;28;20121;-59
2022/11/04 05:21:22;;;;;;;10.40;8.55;;;11.80;99.90;;;;;;4997963;28;20407;-57
2022/11/04 05:24:09;;;;;;;11.95;8.40;;;11.80;99.90;;;;;;5016297;28;20049;-56
2022/11/04 05:26:55;;;;;;;13.02;9.13;;;11.80;99.90;;;;;;5031459;28;20128;-59
2022/11/04 05:29:41;;;;;;;13.77;11.55;;;11.80;99.90;;;;;;5031596;28;20026;-56
2022/11/04 05:32:29;;;;;;;13.70;12.30;;;11.80;99.90;;;;;;5031307;28;20025;-59
2022/11/04 05:35:15;;;;;;;15.88;11.85;;;11.90;99.90;;;;;;5032455;28;20034;-57
2022/11/04 05:38:01;;;;;;;12.45;8.85;;;11.90;99.90;;;;;;5032378;28;20056;-57
2022/11/04 05:40:47;;;;;;;12.18;9.60;;;11.90;99.90;;;;;;5031518;28;20026;-54
2022/11/04 05:43:33;;;;;;;11.85;9.13;;;11.90;99.90;;;;;;5031154;28;20048;-58
2022/11/04 05:46:19;;;;;;;12.25;9.15;;;11.80;99.90;;;;;;5031285;28;20025;-56
2022/11/04 05:49:05;;;;;;;11.00;9.00;;;11.80;99.90;;;;;;5031227;28;20049;-56
2022/11/04 05:51:51;;;;;;;11.32;9.27;;;11.80;99.90;;;;;;5030454;28;20038;-58
2022/11/04 05:54:38;;;;;;;10.52;9.23;;;11.80;99.90;;;;;;5030833;28;20029;-58
2022/11/04 05:57:24;;;;;;;10.27;9.07;;;11.90;99.90;;;;;;5030146;28;20033;-57
2022/11/04 06:00:10;;;;;;;10.40;8.48;;;11.90;99.90;;;;;;5030741;28;20056;-56
2022/11/04 06:02:56;;;;;;;12.52;8.40;;;11.80;99.90;;;;;;5030963;28;20065;-57
2022/11/04 06:05:42;;;;;;;10.60;8.93;;;11.80;99.90;;;;;;5030824;28;20035;-60
2022/11/04 06:08:30;;;;;;;11.95;10.10;;;11.80;99.90;;;;;;5030737;28;20022;-59
2022/11/04 06:11:17;;;;;;;11.27;9.48;;;11.80;99.90;;;;;;5016424;28;20034;-61
2022/11/04 06:14:03;;;;;;;9.02;8.13;;;11.80;99.90;;;;;;5030931;28;20020;-61
2022/11/04 06:16:49;;;;;;;9.07;8.15;;;11.80;99.90;;;;;;5015895;28;20037;-60
2022/11/04 06:19:35;;;;;;;11.52;8.75;;;11.80;99.90;;;;;;5030753;28;20505;-58
2022/11/04 06:22:21;;;;;;;12.13;9.80;;;11.80;99.90;;;;;;5029483;28;20490;-59
2022/11/04 06:25:08;;;;;;;12.05;10.48;;;11.80;99.90;;;;;;5030544;28;20026;-60
2022/11/04 06:27:54;;;;;;;13.80;9.70;;;11.80;99.90;;;;;;5010957;28;20115;-57
2022/11/04 06:30:39;;;;;;;13.93;11.43;;;11.90;99.90;;;;;;5014183;28;20026;-61
2022/11/04 06:33:27;;;;;;;12.50;9.82;;;11.80;99.90;;;;;;5030611;28;20498;-60
2022/11/04 06:36:14;;;;;;;11.20;8.90;;;11.80;99.90;;;;;;5029527;28;20033;-59
2022/11/04 06:39:00;;;;;;;11.10;9.73;;;11.80;99.90;;;;;;5030132;28;20052;-59
2022/11/04 06:41:46;;;;;;;10.95;9.05;;;11.80;99.90;;;;;;5030140;28;20445;-56
2022/11/04 06:44:35;;;;;;;10.27;9.18;;;11.80;99.90;;;;;;5029552;28;20025;-59
2022/11/04 06:47:22;;;;;;;11.23;8.38;;;11.80;99.90;;;;;;4997397;28;20088;-58
2022/11/04 06:50:08;;;;;;;10.20;7.93;;;11.80;99.90;;;;;;5015191;28;20025;-59
2022/11/04 06:52:54;;;;;;;9.82;7.97;;;11.90;99.90;;;;;;5015482;28;20025;-59
2022/11/04 06:55:40;;;;;;;8.40;7.60;;;11.80;99.90;;;;;;5029777;28;20354;-59
2022/11/04 06:58:25;;;;;;;9.60;8.38;;;11.90;99.90;;;;;;5029308;28;20017;-55
2022/11/04 07:01:11;;;;;;;13.60;9.88;;;11.90;99.90;;;;;;5028706;28;20029;-58
2022/11/04 07:03:59;;;;;;;16.50;9.82;;;11.90;99.90;;;;;;5015246;28;20064;-55
2022/11/04 07:06:45;;;;;;;9.57;8.32;;;11.80;99.90;;;;;;5028980;28;20025;-58
2022/11/04 07:09:31;;;;;;;9.73;8.55;;;11.70;99.90;;;;;;4996687;28;20109;-56
2022/11/04 07:12:17;;;;;;;10.13;8.23;;;11.70;99.90;;;;;;5010039;28;20033;-56
2022/11/04 07:15:03;;;;;;;9.23;7.15;;;11.70;99.90;;;;;;5022098;28;20037;-54
2022/11/04 07:17:49;;;;;;;10.90;7.93;;;11.80;99.90;;;;;;5029099;28;20029;-58
2022/11/04 07:20:40;;;;;;;8.50;7.10;;;11.70;99.90;;;;;;5028762;28;20453;-55
2022/11/04 07:23:26;;;;;;;9.85;7.80;;;11.70;99.90;;;;;;5029690;28;20040;-56
2022/11/04 07:26:13;;;;;;;8.77;7.38;;;11.80;99.90;;;;;;5028918;28;20091;-56
2022/11/04 07:28:59;;;;;;;8.95;7.22;;;11.70;99.90;;;;;;5028387;28;20081;-57
2022/11/04 07:31:45;;;;;;;9.57;7.38;;;11.70;99.90;;;;;;5029389;28;20037;-55
2022/11/04 07:34:31;;;;;;;9.55;7.20;;;11.50;99.90;;;;;;5029601;28;20494;-55
2022/11/04 07:37:17;;;;;;;10.27;7.20;;;11.50;99.90;;;;;;5028795;28;20787;-60
2022/11/04 07:40:05;;;;;;;7.82;6.78;;;11.40;99.90;;;;;;5014771;28;20034;-58
2022/11/04 07:42:50;;;;;;;8.98;6.88;;;11.40;99.90;;;;;;5030596;28;20103;-57
2022/11/04 07:45:36;;;;;;;8.10;6.13;;;11.50;99.90;;;;;;5032853;28;20421;-55
2022/11/04 07:48:22;;;;;;;7.32;5.80;;;11.60;99.90;;;;;;5032216;28;20060;-59
2022/11/04 07:51:12;;;;;;;6.80;5.95;;;11.60;99.90;;;;;;5033277;28;20025;-58
2022/11/04 07:53:58;;;;;;;7.55;5.80;;;11.60;99.90;;;;;;5013840;28;20084;-57
2022/11/04 07:56:44;;;;;;;7.35;6.57;;;11.70;99.90;;;;;;5018398;28;20045;-59
2022/11/04 07:59:30;;;;;;;9.48;5.78;;;11.60;99.90;;;;;;5033358;28;20045;-55
2022/11/04 08:02:16;;;;;;;6.32;5.00;;;11.70;99.90;;;;;;5019176;28;20034;-53
2022/11/04 08:05:05;;;;;;;8.40;5.78;;;11.80;99.90;;;;;;5032855;28;20041;-56
2022/11/04 08:07:51;;;;;;;7.90;5.43;;;11.70;99.90;;;;;;5033227;28;20030;-56
2022/11/04 08:10:37;;;;;;;8.00;5.82;;;11.60;99.90;;;;;;5013949;28;20030;-57
2022/11/04 08:13:26;;;;;;;6.90;5.78;;;11.50;99.90;;;;;;5002160;28;20751;-55
2022/11/04 08:16:15;;;;;;;10.43;5.40;;;11.50;99.90;;;;;;5032921;28;20072;-56
2022/11/04 08:19:01;;;;;;;7.05;5.25;;;11.30;99.90;;;;;;5013734;28;20636;-54
2022/11/04 08:21:47;;;;;;;6.75;5.70;;;11.40;99.90;;;;;;5010074;28;20033;-56
2022/11/04 08:24:34;;;;;;;7.60;5.53;;;11.40;99.90;;;;;;5019024;28;20397;-56
2022/11/04 08:27:20;;;;;;;7.43;5.28;;;11.50;99.90;;;;;;5033262;28;20025;-58
2022/11/04 08:30:06;;;;;;;7.57;5.63;;;11.70;99.90;;;;;;5019351;28;20045;-58
2022/11/04 08:32:52;;;;;;;6.22;4.97;;;11.70;99.90;;;;;;5030099;28;20036;-56
2022/11/04 08:35:41;;;;;;;7.18;5.25;;;11.90;99.90;;;;;;5025855;28;20409;-58
2022/11/04 08:38:28;;;;;;;8.55;5.15;;;12.00;99.90;;;;;;5029961;28;20075;-57
2022/11/04 08:41:16;;;;;;;5.57;4.97;;;12.00;99.90;;;;;;5032178;28;20025;-56
2022/11/04 08:44:04;;;;;;;6.50;5.28;;;11.90;99.90;;;;;;4999550;28;20065;-57
2022/11/04 08:46:50;;;;;;;6.65;5.35;;;12.00;99.90;;;;;;5032432;28;20488;-57
2022/11/04 08:49:40;;;;;;;9.98;5.80;;;12.00;99.90;;;;;;5018306;28;20405;-56
2022/11/04 08:52:26;;;;;;;6.65;5.90;;;12.00;99.90;;;;;;5031771;28;20084;-57
2022/11/04 08:55:12;;;;;;;9.10;5.30;;;12.10;99.90;;;;;;5032428;28;20029;-56
2022/11/04 08:58:02;;;;;;;11.93;5.20;;;12.10;99.90;;;;;;5008692;28;20079;-53
2022/11/04 09:00:48;;;;;;;7.65;5.90;;;12.00;99.90;;;;;;5037613;28;20029;-57
2022/11/04 09:03:37;;;;;;;6.13;5.15;;;11.90;99.90;;;;;;5045762;28;20034;-56
2022/11/04 09:06:26;;;;;;;8.05;5.20;;;12.10;99.90;;;;;;5043926;28;20026;-54
2022/11/04 09:09:14;;;;;;;6.95;5.38;;;12.10;99.90;;;;;;5028349;28;20026;-57
2022/11/04 09:12:00;;;;;;;10.30;6.43;;;11.90;99.90;;;;;;5020514;28;20032;-55
2022/11/04 09:14:46;;;;;;;6.95;5.68;;;12.00;99.90;;;;;;5026200;28;20040;-53
2022/11/04 09:17:32;;;;;;;9.00;5.78;;;12.10;99.90;;;;;;5031255;28;20033;-58
2022/11/04 09:20:18;;;;;;;6.90;5.55;;;12.20;99.90;;;;;;5017218;28;20056;-54
2022/11/04 09:23:05;;;;;;;7.13;5.45;;;12.10;99.90;;;;;;5031371;28;20029;-55
2022/11/04 09:25:51;;;;;;;6.35;5.15;;;12.20;99.90;;;;;;5032656;28;20049;-55
2022/11/04 09:28:37;;;;;;;7.05;5.07;;;12.00;99.90;;;;;;5031935;28;20255;-56
2022/11/04 09:31:24;;;;;;;7.50;4.95;;;12.00;99.90;;;;;;5031530;28;20017;-57
2022/11/04 09:34:10;;;;;;;5.63;4.88;;;12.20;99.90;;;;;;5031293;28;20061;-57
2022/11/04 09:36:57;;;;;;;5.75;4.70;;;12.10;99.90;;;;;;5031106;28;20036;-58
2022/11/04 09:39:43;;;;;;;5.68;4.30;;;12.10;99.90;;;;;;5032240;28;20022;-57
2022/11/04 09:42:36;;;;;;;6.05;4.50;;;12.10;99.90;;;;;;5029287;28;20048;-56
2022/11/04 09:45:27;;;;;;;8.10;4.28;;;12.10;99.90;;;;;;5032252;28;20533;-55
2022/11/04 09:48:27;;;;;;;5.30;4.63;;;12.20;99.90;;;;;;5012406;28;20037;-53
2022/11/04 09:51:15;;;;;;;5.57;4.35;;;12.30;99.90;;;;;;5012144;28;20148;-54
2022/11/04 09:54:21;;;;;;;6.15;4.53;;;12.30;99.90;;;;;;5032910;28;20045;-58
2022/11/04 09:57:16;;;;;;;6.07;4.25;;;12.10;99.90;;;;;;5033484;28;20049;-61
2022/11/04 10:00:04;;;;;;;;;;;12.00;99.90;;;;;;5034046;28;20029;-52
2022/11/04 10:03:28;;;;;;;7.57;4.43;;;12.10;99.90;;;;;;5032550;28;19952;-55
2022/11/04 10:06:30;;;;;;;5.07;3.85;;;12.00;99.90;;;;;;5033327;28;20036;-57
2022/11/04 10:09:28;;;;;;;8.68;6.10;;;11.90;99.90;;;;;;5033559;28;20010;-56
2022/11/04 10:12:24;;;;;;;10.93;4.60;;;11.80;99.90;;;;;;5033186;28;20026;-57
2022/11/04 10:15:38;;;;;;;6.45;4.00;;;11.80;99.90;;;;;;5028257;28;20109;-57
2022/11/04 10:18:26;;;;;;;5.90;4.13;;;11.80;99.90;;;;;;5033160;28;20035;-56
2022/11/04 10:21:24;;;;;;;5.07;3.92;;;11.80;99.90;;;;;;5042691;28;20033;-54
2022/11/04 10:24:23;;;;;;;6.32;3.78;;;11.80;99.90;;;;;;5029187;28;20080;-53
2022/11/04 10:27:25;;;;;;;7.07;4.18;;;11.80;99.90;;;;;;5018957;28;20067;-57
2022/11/04 10:30:19;;;;;;;7.95;4.82;;;12.00;99.90;;;;;;5026927;28;20026;-57
2022/11/04 10:33:07;;;;;;;5.07;3.80;;;12.00;99.90;;;;;;5012836;28;20037;-55
2022/11/04 10:35:59;;;;;;;10.63;4.40;;;12.00;99.90;;;;;;5020335;28;20109;-59
2022/11/04 10:38:50;;;;;;;5.00;3.88;;;11.90;99.90;;;;;;5032143;28;20021;-56
2022/11/04 10:41:38;;;;;;;4.00;3.38;;;11.80;99.90;;;;;;5046853;28;20060;-58
2022/11/04 10:44:25;;;;;;;5.05;3.40;;;11.80;99.90;;;;;;5037356;28;20033;-56
2022/11/04 10:47:42;;;;;;;4.97;3.80;;;11.70;99.90;;;;;;5051469;28;20026;-57
2022/11/04 10:50:40;;;;;;;6.63;4.22;;;11.80;99.90;;;;;;5041852;28;20018;-59
2022/11/04 10:53:29;;;;;;;9.73;5.00;;;11.70;99.90;;;;;;5019163;28;20478;-60
2022/11/04 10:56:28;;;;;;;5.07;3.42;;;11.80;99.90;;;;;;5031275;28;20041;-59
2022/11/04 10:59:22;;;;;;;4.82;3.42;;;11.90;99.90;;;;;;5040846;28;20036;-58
2022/11/04 11:02:08;;;;;;;4.07;3.45;;;11.90;99.90;;;;;;5016936;28;20563;-57
2022/11/04 11:05:20;;;;;;;5.43;3.05;;;11.80;99.90;;;;;;5015601;28;20060;-57
2022/11/04 11:08:29;;;;;;;5.88;4.00;;;11.70;99.90;;;;;;5030819;28;20030;-57
2022/11/04 11:11:33;;;;;;;5.65;3.60;;;11.90;99.90;;;;;;5029663;28;20021;-57
2022/11/04 11:14:39;;;;;;;4.68;3.53;;;11.80;99.90;;;;;;5029494;28;20482;-57
2022/11/04 11:17:37;;;;;;;6.72;3.92;;;11.80;99.90;;;;;;5028882;28;20029;-59
2022/11/04 11:20:24;;;;;;;6.15;4.28;;;11.70;99.90;;;;;;4996483;28;20033;-56
2022/11/04 11:23:35;;;;;;;7.03;4.20;;;11.70;99.90;;;;;;5027576;28;20396;-58
2022/11/04 11:26:30;;;;;;;6.15;3.92;;;11.70;99.90;;;;;;5026732;28;20018;-57
2022/11/04 11:29:39;;;;;;;7.13;3.50;;;11.70;99.90;;;;;;4983269;28;20439;-57
2022/11/04 11:32:34;;;;;;;8.57;4.00;;;11.80;99.90;;;;;;5014894;28;20521;-54
2022/11/04 11:35:25;;;;;;;5.10;3.28;;;11.90;99.90;;;;;;5019384;28;20407;-58
2022/11/04 11:38:22;;;;;;;3.78;3.38;;;11.80;99.90;;;;;;5029263;28;20512;-57
2022/11/04 11:41:17;;;;;;;5.53;3.00;;;11.70;99.90;;;;;;5030333;28;20025;-56
2022/11/04 11:44:05;;;;;;;;;;;11.70;99.90;;;;;;5015813;28;20026;-58
2022/11/04 11:46:56;;;;;;;7.22;3.30;;;11.60;99.90;;;;;;5030275;28;20027;-55
2022/11/04 11:49:42;;;;;;;5.28;2.80;;;11.40;99.90;;;;;;5021781;28;20017;-55
2022/11/04 11:52:38;;;;;;;3.40;2.90;;;11.40;99.90;;;;;;5029540;28;20026;-56
2022/11/04 11:55:27;;;;;;;6.07;3.45;;;11.50;99.90;;;;;;5032286;28;20404;-56
2022/11/04 11:58:40;;;;;;;6.45;3.15;;;11.30;99.90;;;;;;5017134;28;20040;-55
2022/11/04 12:01:33;;;;;;;5.05;3.10;;;11.40;99.90;;;;;;5029698;28;20379;-59
2022/11/04 12:04:20;;;;;;;4.68;2.92;;;11.40;99.90;;;;;;5029474;28;20025;-59
2022/11/04 12:07:34;;;;;;;6.25;2.75;;;11.40;99.90;;;;;;4995798;28;20042;-59
2022/11/04 12:10:34;;;;;;;4.57;3.00;;;11.50;99.90;;;;;;5024279;28;20028;-59
2022/11/04 12:13:27;;;;;;;4.53;3.65;;;11.50;99.90;;;;;;5017441;28;20025;-61
2022/11/04 12:16:25;;;;;;;4.78;3.05;;;11.40;99.90;;;;;;5016983;28;20037;-58
2022/11/04 12:19:32;;;;;;;4.97;3.05;;;11.40;99.90;;;;;;5028855;28;20057;-55
2022/11/04 12:22:47;;;;;;;5.60;3.08;;;11.50;99.90;;;;;;5017848;28;20039;-61
2022/11/04 12:26:09;;;;;;;5.63;3.28;;;11.60;99.90;;;;;;5001972;28;20076;-60
2022/11/04 12:29:26;;;;;;;4.97;2.80;;;11.70;99.90;;;;;;5016935;28;20052;-57
2022/11/04 12:32:33;;;;;;;5.80;3.35;;;11.80;99.90;;;;;;5029324;28;20083;-56
2022/11/04 12:35:32;;;;;;;10.48;3.65;;;11.90;99.90;;;;;;5020545;28;20060;-57
2022/11/04 12:38:47;;;;;;;3.97;3.00;;;11.90;99.90;;;;;;5032098;28;20116;-60
2022/11/04 12:41:58;;;;;;;4.80;2.87;;;11.80;99.90;;;;;;5025835;28;20026;-58
2022/11/04 12:45:03;;;;;;;6.10;3.00;;;11.90;99.90;;;;;;5032733;28;20256;-57
2022/11/04 12:47:51;;;;;;;5.55;2.95;;;11.90;99.90;;;;;;5032684;28;20029;-58
2022/11/04 12:51:04;;;;;;;5.50;3.15;;;12.00;99.90;;;;;;5018512;28;20033;-58
2022/11/04 12:54:12;;;;;;;4.05;2.58;;;12.00;99.90;;;;;;5031272;28;20120;-59
2022/11/04 12:57:31;;;;;;;5.40;3.03;;;12.00;99.90;;;;;;5018065;28;20029;-59
2022/11/04 13:00:27;;;;;;;7.32;3.30;;;12.20;99.90;;;;;;5019801;28;20044;-59
2022/11/04 13:03:20;;;;;;;8.35;3.25;;;12.30;99.90;;;;;;5032332;28;20079;-58
2022/11/04 13:06:14;;;;;;;7.78;3.22;;;12.30;99.90;;;;;;5032085;28;20453;-57
2022/11/04 13:09:31;;;;;;;4.87;3.27;;;12.40;99.90;;;;;;5019207;28;20045;-56
2022/11/04 13:12:21;;;;;;;5.25;3.25;;;12.50;99.90;;;;;;5030839;28;20272;-61
2022/11/04 13:15:27;;;;;;;5.63;3.00;;;12.60;99.90;;;;;;5032288;28;20033;-59
2022/11/04 13:18:18;;;;;;;4.93;2.67;;;12.80;99.90;;;;;;5019245;28;20042;-59
2022/11/04 13:21:08;;;;;;;6.32;2.97;;;13.00;99.90;;;;;;5032138;28;20485;-59
2022/11/04 13:24:03;;;;;;;11.52;4.00;;;13.00;99.90;;;;;;5031574;28;20029;-59
2022/11/04 13:26:51;;;;;;;12.20;3.17;;;12.90;99.90;;;;;;5016790;28;20018;-59
2022/11/04 13:29:38;;;;;;;5.97;3.30;;;12.80;99.90;;;;;;5018929;28;20498;-57
2022/11/04 13:32:32;;;;;;;5.70;2.95;;;12.80;99.90;;;;;;5030235;28;20068;-57
2022/11/04 13:35:32;;;;;;;7.63;3.30;;;12.90;99.90;;;;;;5026135;28;20398;-61
2022/11/04 13:38:37;;;;;;;9.20;3.45;;;12.90;99.90;;;;;;5031248;28;20034;-58
2022/11/04 13:42:14;;;;;;;5.93;3.40;;;12.90;99.90;;;;;;5020033;28;20047;-55
2022/11/04 13:45:13;;;;;;;5.68;3.35;;;12.90;99.90;;;;;;5016402;28;20093;-61
2022/11/04 13:48:00;;;;;;;5.20;3.50;;;12.90;99.90;;;;;;5031361;28;20026;-57
2022/11/04 13:51:00;;;;;;;6.45;4.15;;;13.00;99.90;;;;;;5004683;28;20445;-59
2022/11/04 13:53:52;;;;;;;9.05;3.45;;;13.00;99.90;;;;;;5030918;28;20437;-59
2022/11/04 13:56:40;;;;;;;4.75;2.95;;;12.90;99.90;;;;;;5033826;28;20147;-61
2022/11/04 13:59:28;;;;;;;6.18;2.85;;;12.90;99.90;;;;;;5018223;28;20061;-59
2022/11/04 14:02:20;;;;;;;6.13;2.95;;;12.80;99.90;;;;;;5016675;28;20038;-61
2022/11/04 14:05:38;;;;;;;5.88;2.92;;;12.70;99.90;;;;;;5029170;28;20292;-61
2022/11/04 14:08:24;;;;;;;8.15;3.25;;;12.70;99.90;;;;;;5013558;28;20026;-56
2022/11/04 14:11:11;;;;;;;4.18;2.90;;;12.70;99.90;;;;;;5017174;28;20049;-59
2022/11/04 14:14:02;;;;;;;4.88;3.05;;;12.70;99.90;;;;;;5009722;28;20409;-58
2022/11/04 14:16:48;;;;;;;5.60;2.88;;;12.60;99.90;;;;;;5031299;28;20478;-59
2022/11/04 14:19:55;;;;;;;4.72;3.17;;;12.60;99.90;;;;;;5030855;28;20030;-58
2022/11/04 14:22:53;;;;;;;5.95;3.10;;;12.70;99.90;;;;;;5023869;28;20402;-60
2022/11/04 14:25:43;;;;;;;5.05;2.88;;;12.70;99.90;;;;;;5019944;28;20545;-58
2022/11/04 14:28:31;;;;;;;6.13;3.08;;;12.70;99.90;;;;;;5032343;28;20504;-60
2022/11/04 14:31:38;;;;;;;5.68;2.97;;;12.70;99.90;;;;;;5033172;28;20034;-56
2022/11/04 14:34:34;;;;;;;6.47;3.38;;;12.70;99.90;;;;;;5031007;28;20013;-59
2022/11/04 14:37:27;;;;;;;6.93;3.45;;;12.60;99.90;;;;;;5030455;28;20037;-60
2022/11/04 14:40:26;;;;;;;5.47;2.97;;;12.60;99.90;;;;;;5015972;28;20033;-57
2022/11/04 14:43:25;;;;;;;5.50;3.20;;;12.50;99.90;;;;;;5016419;28;20080;-58
2022/11/04 14:46:19;;;;;;;5.93;3.28;;;12.50;99.90;;;;;;5030233;28;20041;-57
2022/11/04 14:49:05;;;;;;;6.25;3.30;;;12.40;99.90;;;;;;5029575;28;20043;-60
2022/11/04 14:51:53;;;;;;;7.20;3.63;;;12.30;99.90;;;;;;5015003;28;20025;-61
2022/11/04 14:54:39;;;;;;;7.55;3.35;;;12.30;99.90;;;;;;5029793;28;20120;-59
2022/11/04 14:57:28;;;;;;;5.82;2.92;;;12.30;99.90;;;;;;5029884;28;20036;-57
2022/11/04 15:00:37;;;;;;;6.25;2.95;;;12.40;99.90;;;;;;5030582;28;20061;-58
2022/11/04 15:03:33;;;;;;;4.50;2.80;;;12.40;99.90;;;;;;5029570;28;20025;-60
2022/11/04 15:06:24;;;;;;;6.35;3.08;;;12.20;99.90;;;;;;5030423;28;20033;-59
2022/11/04 15:09:21;;;;;;;5.30;3.38;;;12.10;99.90;;;;;;5013934;28;20232;-59
2022/11/04 15:15:32;;;;;;;8.05;3.70;;;12.10;99.90;;;;;;5018162;28;20409;-59
2022/11/04 15:18:21;;;;;;;5.65;3.40;;;12.10;99.90;;;;;;5016896;28;20026;-55
2022/11/04 15:21:09;;;;;;;6.28;3.28;;;12.10;99.90;;;;;;5029692;28;20124;-61
2022/11/04 15:23:55;;;;;;;6.88;3.72;;;12.10;99.90;;;;;;5028842;28;20049;-59